Time;durP1;ratioP1;P1;durP2;ratioP2;P2;SDS_P1;SDS_P2;PMS_P1;PMS_P2;Temp;Humidity;BMP_temperature;BMP_pressure;BME280_temperature;BME280_humidity;BME280_pressure;Samples;Min_cycle;Max_cycle;Signal;HPM_P1;HPM_P2
2023/05/01 00:00:09;;;;;;;4.95;2.30;;;;;;;12.12;72.33;99810.34;12200850;19;20031;-84
2023/05/01 00:04:15;;;;;;;3.45;1.80;;;;;;;12.08;72.92;99807.28;12180065;19;20007;-85
2023/05/01 00:08:18;;;;;;;5.00;2.10;;;;;;;12.02;73.78;99791.75;12202291;19;20031;-83
2023/05/01 00:12:19;;;;;;;4.88;2.22;;;;;;;12.00;74.16;99792.00;12199501;19;20007;-83
2023/05/01 00:16:21;;;;;;;3.53;2.13;;;;;;;11.94;74.99;99787.50;12176038;19;20057;-84
2023/05/01 00:20:29;;;;;;;5.30;2.78;;;;;;;11.86;75.74;99776.94;12198542;19;20007;-85
2023/05/01 00:24:31;;;;;;;3.22;2.10;;;;;;;11.81;75.74;99774.94;12193451;19;20537;-85
2023/05/01 00:28:33;;;;;;;5.25;2.20;;;;;;;11.78;76.71;99778.22;12172082;19;20174;-85
2023/05/01 00:32:35;;;;;;;7.20;2.28;;;;;;;11.76;75.97;99766.59;12194952;19;20027;-84
2023/05/01 00:36:37;;;;;;;2.78;1.92;;;;;;;11.76;76.04;99763.81;12201846;19;20017;-84
2023/05/01 00:40:45;;;;;;;3.85;2.83;;;;;;;11.78;76.29;99758.88;12194078;19;20036;-82
2023/05/01 00:44:47;;;;;;;5.18;1.98;;;;;;;11.80;75.31;99750.31;12202280;19;20018;-84
2023/05/01 00:48:49;;;;;;;2.80;2.00;;;;;;;11.79;74.69;99752.25;12201330;19;20123;-80
2023/05/01 00:52:51;;;;;;;3.67;2.20;;;;;;;11.76;75.11;99749.19;12181075;19;20011;-85
2023/05/01 00:56:53;;;;;;;4.88;2.55;;;;;;;11.68;74.91;99744.94;12197226;19;20401;-83
2023/05/01 01:00:56;;;;;;;4.38;2.00;;;;;;;11.64;75.08;99738.28;12204064;19;20010;-84
2023/05/01 01:04:58;;;;;;;5.75;2.58;;;;;;;11.59;74.59;99727.19;12180096;19;20036;-83
2023/05/01 01:09:18;;;;;;;4.82;2.28;;;;;;;11.55;75.60;99720.53;12199451;19;20018;-84
2023/05/01 01:13:28;;;;;;;7.18;2.50;;;;;;;11.45;76.00;99723.16;12179550;19;20021;-85
2023/05/01 01:17:56;;;;;;;4.55;2.13;;;;;;;11.37;76.45;99717.00;12194544;19;20076;-84
2023/05/01 01:22:07;;;;;;;3.80;2.30;;;;;;;11.31;76.87;99706.19;12199476;19;20014;-85
2023/05/01 01:26:24;;;;;;;3.75;2.30;;;;;;;11.23;77.19;99704.69;12176610;19;20120;-85
2023/05/01 01:30:55;;;;;;;4.53;2.38;;;;;;;11.20;76.77;99704.38;12202530;19;20038;-85
2023/05/01 01:35:09;;;;;;;6.40;2.42;;;;;;;11.18;76.35;99699.97;12188086;19;20060;-84
2023/05/01 01:39:42;;;;;;;4.07;2.65;;;;;;;11.17;76.49;99695.50;12211183;19;20036;-84
2023/05/01 01:43:49;;;;;;;6.53;2.60;;;;;;;11.12;77.45;99697.38;12186728;19;20011;-84
2023/05/01 01:47:53;;;;;;;3.47;2.30;;;;;;;11.09;76.95;99692.38;12210089;19;20090;-83
2023/05/01 01:51:57;;;;;;;5.03;2.28;;;;;;;11.08;76.91;99688.78;12206179;19;20027;-83
2023/05/01 01:56:01;;;;;;;4.20;2.42;;;;;;;11.09;77.32;99684.09;12181974;19;20823;-85
2023/05/01 02:00:09;;;;;;;5.38;2.85;;;;;;;11.03;77.60;99680.44;12208027;19;20006;-85
2023/05/01 02:04:18;;;;;;;;;;;;;;;11.01;78.13;99677.13;12185162;19;20007;-84
2023/05/01 02:08:21;;;;;;;6.47;2.63;;;;;;;10.97;78.08;99664.91;12207686;19;19934;-85
2023/05/01 02:12:25;;;;;;;;;;;;;;;10.91;79.20;99675.03;12211530;19;20543;-83
2023/05/01 02:16:27;;;;;;;5.22;2.33;;;;;;;10.89;77.95;99671.72;12183013;19;19974;-85
2023/05/01 02:20:32;;;;;;;4.78;2.30;;;;;;;10.90;78.16;99672.56;12207094;19;20006;-83
2023/05/01 02:24:37;;;;;;;3.97;2.67;;;;;;;10.88;78.28;99672.78;12205910;19;20006;-84
2023/05/01 02:28:40;;;;;;;4.25;2.40;;;;;;;10.82;79.34;99673.81;12185525;19;20010;-86
2023/05/01 02:32:41;;;;;;;5.45;2.35;;;;;;;10.79;80.33;99670.75;12206362;19;20007;-84
2023/05/01 02:36:44;;;;;;;5.10;2.50;;;;;;;10.80;79.59;99672.44;12199648;19;20006;-84
2023/05/01 02:40:51;;;;;;;4.50;2.83;;;;;;;10.79;79.36;99670.75;12184777;19;20014;-85
2023/05/01 02:44:56;;;;;;;6.40;3.15;;;;;;;10.77;79.13;99657.22;12203585;19;20137;-85
2023/05/01 02:49:00;;;;;;;8.18;2.83;;;;;;;10.79;79.10;99660.53;12205271;19;20007;-84
2023/05/01 02:53:03;;;;;;;4.80;2.70;;;;;;;10.74;79.69;99652.22;12182596;19;20006;-84
2023/05/01 02:57:19;;;;;;;5.28;2.70;;;;;;;10.73;79.56;99650.53;12204802;19;20006;-84
2023/05/01 03:01:24;;;;;;;5.43;2.30;;;;;;;10.77;79.24;99654.47;12183680;19;20510;-86
2023/05/01 03:05:26;;;;;;;4.90;2.53;;;;;;;10.79;79.16;99644.00;12203572;19;20363;-85
2023/05/01 03:09:28;;;;;;;6.80;2.92;;;;;;;10.80;79.68;99642.94;12201977;19;20010;-85
2023/05/01 03:13:30;;;;;;;5.15;3.28;;;;;;;10.81;81.15;99638.25;12180879;19;20006;-84
2023/05/01 03:17:33;;;;;;;5.95;2.75;;;;;;;10.85;81.78;99631.97;12201339;19;20006;-84
2023/05/01 03:21:35;;;;;;;9.95;2.85;;;;;;;10.89;82.40;99632.31;12201529;19;20135;-83
2023/05/01 03:25:37;;;;;;;8.38;3.65;;;;;;;10.93;82.42;99623.25;12181667;19;20042;-84
2023/05/01 03:29:39;;;;;;;5.50;2.70;;;;;;;11.04;80.09;99626.16;12204270;19;20011;-86
2023/05/01 03:33:41;;;;;;;5.03;3.03;;;;;;;11.12;78.90;99622.91;12200772;19;20010;-84
2023/05/01 03:37:43;;;;;;;6.37;3.23;;;;;;;11.15;78.46;99622.41;12177086;19;20034;-84
2023/05/01 03:41:50;;;;;;;6.20;3.13;;;;;;;11.18;78.49;99614.47;12202510;19;20470;-83
2023/05/01 03:45:57;;;;;;;7.13;3.58;;;;;;;11.21;77.93;99620.53;12203392;19;19998;-83
2023/05/01 03:49:59;;;;;;;7.47;2.80;;;;;;;11.25;76.93;99621.69;12179527;19;20019;-84
2023/05/01 03:54:01;;;;;;;5.27;2.73;;;;;;;11.27;77.06;99606.53;12201976;19;20027;-83
2023/05/01 03:58:11;;;;;;;7.20;2.78;;;;;;;11.27;77.25;99609.28;12198738;19;20002;-83
2023/05/01 04:02:13;;;;;;;7.22;3.55;;;;;;;11.28;76.65;99610.97;12213056;19;20015;-82
2023/05/01 04:06:18;;;;;;;3.70;2.60;;;;;;;11.29;75.77;99609.88;12208561;19;20014;-82
2023/05/01 04:10:19;;;;;;;5.95;3.25;;;;;;;11.35;75.62;99617.09;12181676;19;20015;-83
2023/05/01 04:14:30;;;;;;;4.35;2.80;;;;;;;11.35;74.92;99624.56;12202587;19;20023;-83
2023/05/01 04:18:33;;;;;;;6.18;2.97;;;;;;;11.38;74.30;99633.13;12200485;19;20042;-83
2023/05/01 04:22:34;;;;;;;5.93;2.97;;;;;;;11.42;74.66;99633.44;12178678;19;20359;-82
2023/05/01 04:26:37;;;;;;;4.97;2.60;;;;;;;11.47;74.47;99638.19;12199923;19;20037;-83
2023/05/01 04:30:40;;;;;;;5.38;2.75;;;;;;;11.49;74.88;99636.03;12202838;19;20003;-82
2023/05/01 04:34:45;;;;;;;6.07;3.28;;;;;;;11.51;74.58;99634.69;12177679;19;20022;-83
2023/05/01 04:38:48;;;;;;;5.70;2.83;;;;;;;11.51;74.64;99639.34;12198427;19;20459;-84
2023/05/01 04:42:50;;;;;;;5.22;2.90;;;;;;;11.51;74.77;99639.34;12198192;19;20013;-82
2023/05/01 04:46:52;;;;;;;4.47;3.15;;;;;;;11.52;75.48;99644.59;12180295;19;20029;-85
2023/05/01 04:50:54;;;;;;;7.40;2.90;;;;;;;11.52;75.45;99635.50;12200783;19;20010;-83
2023/05/01 04:54:58;;;;;;;4.38;3.25;;;;;;;11.53;75.13;99642.69;12197233;19;20013;-84
2023/05/01 04:59:06;;;;;;;5.82;3.03;;;;;;;11.58;75.07;99638.03;12178061;19;20023;-81
2023/05/01 05:03:08;;;;;;;6.18;3.08;;;;;;;11.61;74.78;99640.28;12198279;19;20014;-85
2023/05/01 05:07:11;;;;;;;;;;;;;;;11.70;74.47;99637.06;12187054;19;20010;-82
2023/05/01 05:11:33;;;;;;;5.47;3.45;;;;;;;11.77;73.99;99635.72;12203829;19;19915;-82
2023/05/01 05:15:42;;;;;;;6.88;3.33;;;;;;;11.83;73.65;99628.31;12201334;19;20007;-82
2023/05/01 05:19:45;;;;;;;5.85;3.40;;;;;;;11.92;73.15;99634.25;12178379;19;20050;-83
2023/05/01 05:23:47;;;;;;;7.57;3.53;;;;;;;12.03;72.41;99636.81;12200092;19;20015;-85
2023/05/01 05:27:49;;;;;;;11.27;3.20;;;;;;;12.12;72.39;99628.88;12199092;19;20042;-83
2023/05/01 05:31:51;;;;;;;8.60;4.00;;;;;;;12.17;72.46;99633.63;12176295;19;20007;-83
2023/05/01 05:35:53;;;;;;;7.90;3.50;;;;;;;12.28;71.71;99632.59;12194503;19;20271;-84
2023/05/01 05:40:00;;;;;;;5.07;3.38;;;;;;;12.28;72.03;99629.81;12199246;19;20030;-84
2023/05/01 05:44:06;;;;;;;6.15;3.17;;;;;;;12.27;71.28;99629.00;12175645;19;20014;-83
2023/05/01 05:48:08;;;;;;;6.20;2.73;;;;;;;12.27;71.45;99634.53;12190804;19;20081;-83
2023/05/01 05:52:13;;;;;;;5.53;3.20;;;;;;;12.31;70.40;99627.38;12176648;19;20499;-83
2023/05/01 05:56:15;;;;;;;7.63;3.40;;;;;;;12.36;70.92;99628.50;12195229;19;20042;-83
2023/05/01 06:00:18;;;;;;;8.50;3.53;;;;;;;12.50;71.92;99638.00;12200281;19;20447;-84
2023/05/01 06:04:23;;;;;;;5.28;3.55;;;;;;;12.67;71.29;99635.03;12174318;19;20014;-84
2023/05/01 06:08:25;;;;;;;4.55;3.40;;;;;;;12.83;70.62;99636.78;12196859;19;20028;-83
2023/05/01 06:12:28;;;;;;;6.97;3.53;;;;;;;13.02;72.38;99626.09;12198186;19;20011;-84
2023/05/01 06:16:31;;;;;;;7.03;3.60;;;;;;;13.21;70.14;99627.28;12175391;19;20110;-85
2023/05/01 06:20:33;;;;;;;5.55;3.63;;;;;;;13.44;68.79;99627.91;12210893;19;20074;-83
2023/05/01 06:24:35;;;;;;;5.28;3.03;;;;;;;13.67;67.44;99621.88;12208019;19;20515;-85
2023/05/01 06:28:37;;;;;;;5.00;3.30;;;;;;;13.80;66.06;99622.44;12184650;19;20007;-83
2023/05/01 06:32:42;;;;;;;6.60;3.22;;;;;;;13.98;66.36;99621.03;12208282;19;20011;-84
2023/05/01 06:36:44;;;;;;;7.40;3.10;;;;;;;14.12;65.21;99613.84;12204401;19;20358;-85
2023/05/01 06:40:48;;;;;;;5.68;3.47;;;;;;;14.33;64.39;99614.66;12185959;19;20014;-84
2023/05/01 06:44:52;;;;;;;6.28;3.40;;;;;;;14.53;64.17;99617.44;12205776;19;20024;-82
2023/05/01 06:48:57;;;;;;;5.80;3.10;;;;;;;14.57;63.48;99610.22;12207797;19;20018;-84
2023/05/01 06:52:59;;;;;;;10.75;3.92;;;;;;;14.72;64.66;99614.03;12183119;19;20010;-83
2023/05/01 06:57:01;;;;;;;6.60;3.42;;;;;;;14.95;63.89;99618.13;12203320;19;20042;-83
2023/05/01 07:01:03;;;;;;;4.63;3.28;;;;;;;15.11;62.31;99627.22;12204498;19;20011;-84
2023/05/01 07:05:06;;;;;;;6.57;3.50;;;;;;;15.24;61.62;99616.34;12184257;19;20459;-83
2023/05/01 07:09:10;;;;;;;5.70;3.45;;;;;;;15.39;60.97;99615.41;12200967;19;20015;-84
2023/05/01 07:13:12;;;;;;;5.72;3.60;;;;;;;15.63;61.82;99623.88;12182334;19;20002;-85
2023/05/01 07:17:14;;;;;;;7.38;3.53;;;;;;;15.88;62.62;99616.50;12202557;19;20037;-82
2023/05/01 07:21:16;;;;;;;5.97;3.43;;;;;;;16.01;60.84;99613.06;12203694;19;20022;-85
2023/05/01 07:25:19;;;;;;;6.70;3.22;;;;;;;16.10;59.63;99614.09;12182088;19;20018;-80
2023/05/01 07:29:20;;;;;;;8.50;3.65;;;;;;;16.18;58.41;99607.94;12194511;19;20006;-83
2023/05/01 07:33:26;;;;;;;7.47;3.80;;;;;;;16.27;58.09;99615.63;12209021;19;20471;-83
2023/05/01 07:37:27;;;;;;;8.90;3.53;;;;;;;16.39;57.24;99611.34;12183419;19;21792;-83
2023/05/01 07:41:30;;;;;;;7.53;3.55;;;;;;;16.57;57.13;99609.78;12207839;19;20022;-83
2023/05/01 07:45:33;;;;;;;7.38;3.55;;;;;;;16.63;56.38;99610.53;12206651;19;20511;-83
2023/05/01 07:49:37;;;;;;;6.82;3.55;;;;;;;16.79;55.15;99608.44;12183706;19;20014;-82
2023/05/01 07:53:41;;;;;;;6.80;3.75;;;;;;;16.98;55.29;99611.25;12199968;19;20086;-83
2023/05/01 07:57:42;;;;;;;6.70;3.58;;;;;;;17.21;55.43;99606.81;12201722;19;20038;-84
2023/05/01 08:01:44;;;;;;;7.13;3.57;;;;;;;17.33;54.08;99607.19;12174032;19;20039;-84
2023/05/01 08:05:46;;;;;;;5.67;3.70;;;;;;;17.42;54.07;99605.38;12202992;19;20017;-82
2023/05/01 08:09:48;;;;;;;6.43;3.50;;;;;;;17.60;54.80;99609.31;12204728;19;20110;-83
2023/05/01 08:13:51;;;;;;;5.25;3.30;;;;;;;17.57;53.94;99607.13;12183253;19;20081;-83
2023/05/01 08:17:53;;;;;;;6.47;3.60;;;;;;;17.74;53.79;99601.84;12200864;19;20038;-85
2023/05/01 08:21:55;;;;;;;5.47;3.70;;;;;;;17.81;52.65;99598.72;12201513;19;20018;-82
2023/05/01 08:25:57;;;;;;;7.97;3.85;;;;;;;17.80;52.62;99602.63;12184072;19;20003;-82
2023/05/01 08:30:00;;;;;;;7.03;3.60;;;;;;;18.01;53.46;99599.53;12202401;19;20360;-82
2023/05/01 08:34:04;;;;;;;5.43;3.53;;;;;;;17.95;51.73;99594.03;12199390;19;20015;-83
2023/05/01 08:38:07;;;;;;;5.85;3.67;;;;;;;18.04;51.96;99596.13;12177886;19;20002;-83
2023/05/01 08:42:12;;;;;;;6.13;3.70;;;;;;;18.13;51.40;99595.09;12199220;19;19999;-82
2023/05/01 08:46:47;;;;;;;5.28;3.55;;;;;;;18.30;50.56;99590.94;12178986;19;19999;-84
2023/05/01 08:50:52;;;;;;;5.75;3.38;;;;;;;18.41;51.52;99600.75;12194242;19;20021;-84
2023/05/01 08:54:55;;;;;;;5.88;3.22;;;;;;;18.43;49.96;99593.72;12195961;19;20478;-81
2023/05/01 08:58:59;;;;;;;5.78;3.55;;;;;;;18.61;50.72;99588.38;12176518;19;20526;-82
2023/05/01 09:03:03;;;;;;;5.13;3.40;;;;;;;18.93;50.48;99590.28;12199562;19;20049;-84
2023/05/01 09:07:06;;;;;;;5.95;3.20;;;;;;;19.07;48.46;99587.50;12196463;19;20025;-84
2023/05/01 09:11:10;;;;;;;5.95;3.65;;;;;;;19.06;49.01;99589.44;12177938;19;20010;-86
2023/05/01 09:15:14;;;;;;;4.43;3.42;;;;;;;19.18;48.51;99590.88;12195867;19;20011;-84
2023/05/01 09:19:18;;;;;;;4.57;3.47;;;;;;;19.13;48.65;99589.03;12172026;19;20463;-82
2023/05/01 09:23:20;;;;;;;5.75;3.78;;;;;;;19.10;48.97;99593.28;12194109;19;20006;-84
2023/05/01 09:27:22;;;;;;;6.87;3.80;;;;;;;18.91;48.97;99584.19;12196843;19;20074;-82
2023/05/01 09:31:31;;;;;;;5.50;3.45;;;;;;;19.17;49.38;99589.25;12177481;19;20014;-81
2023/05/01 09:35:52;;;;;;;7.25;4.20;;;;;;;19.46;48.05;99586.09;12189855;19;20010;-84
2023/05/01 09:40:03;;;;;;;6.25;3.60;;;;;;;19.64;47.46;99576.72;12190898;19;20015;-82
2023/05/01 09:44:18;;;;;;;7.22;3.22;;;;;;;19.56;45.93;99583.88;12149160;19;20428;-82
2023/05/01 09:48:20;;;;;;;7.68;4.05;;;;;;;19.57;46.04;99579.94;12203421;19;20020;-82
2023/05/01 09:52:27;;;;;;;7.32;3.75;;;;;;;19.78;46.66;99576.66;12190462;19;20014;-84
2023/05/01 09:56:31;;;;;;;5.32;3.63;;;;;;;19.83;46.20;99584.94;12221932;19;20007;-83
2023/05/01 10:00:50;;;;;;;7.25;3.92;;;;;;;19.88;45.63;99581.22;12227680;19;20048;-83
2023/05/01 10:04:57;;;;;;;5.05;3.47;;;;;;;19.95;45.44;99582.41;12206865;19;20370;-81
2023/05/01 10:09:16;;;;;;;7.07;3.67;;;;;;;20.04;45.27;99585.25;12231110;19;20018;-83
2023/05/01 10:13:20;;;;;;;5.75;3.45;;;;;;;20.33;44.68;99579.19;12201567;19;20467;-82
2023/05/01 10:17:25;;;;;;;7.10;4.10;;;;;;;20.94;43.42;99577.53;12222656;19;20474;-84
2023/05/01 10:21:31;;;;;;;6.20;3.60;;;;;;;21.28;43.10;99577.94;12224010;19;20006;-83
2023/05/01 10:25:36;;;;;;;5.82;3.50;;;;;;;21.54;41.66;99575.22;12198419;19;20018;-83
2023/05/01 10:29:41;;;;;;;7.82;3.90;;;;;;;21.37;41.25;99579.63;12215581;19;20007;-83
2023/05/01 10:33:44;;;;;;;4.93;3.45;;;;;;;21.22;41.24;99582.88;12211014;19;20018;-82
2023/05/01 10:37:46;;;;;;;6.72;4.38;;;;;;;;;;12182740;19;20003;-81
2023/05/01 10:41:57;;;;;;;5.35;3.72;;;;;;;21.04;42.81;99564.38;12215498;19;20006;-87
2023/05/01 10:46:08;;;;;;;5.53;4.15;;;;;;;20.95;43.29;99572.75;12212066;19;20028;-81
2023/05/01 11:10:00;;;;;;;5.10;3.38;;;;;;;21.85;41.30;99553.41;12179437;19;20037;-86
2023/05/01 11:14:04;;;;;;;6.95;4.10;;;;;;;21.83;40.96;99552.09;12209221;19;20010;-85
2023/05/01 11:18:06;;;;;;;5.65;3.97;;;;;;;21.85;39.99;99553.41;12194413;19;20014;-86
2023/05/01 11:22:12;;;;;;;5.35;3.85;;;;;;;22.17;38.97;99542.84;12233387;19;20011;-84
2023/05/01 11:26:22;;;;;;;7.88;3.60;;;;;;;22.30;39.06;99536.19;12216261;19;20006;-86
2023/05/01 11:35:05;;;;;;;5.88;3.70;;;;;;;22.62;38.40;99528.31;12205488;19;20011;-86
2023/05/01 11:43:30;;;;;;;5.72;3.97;;;;;;;23.22;38.65;99528.34;12191508;19;20031;-84
2023/05/01 11:52:03;;;;;;;5.45;3.78;;;;;;;22.06;38.61;99525.47;12188799;19;20011;-83
2023/05/01 11:56:18;;;;;;;5.93;3.35;;;;;;;21.79;38.62;99523.06;12172392;19;20002;-83
2023/05/01 12:00:37;;;;;;;5.10;3.15;;;;;;;21.61;39.34;99523.06;12201073;19;20408;-83
2023/05/01 12:04:39;;;;;;;6.57;3.00;;;;;;;21.58;39.30;99518.13;12186314;19;20018;-83
2023/05/01 12:08:49;;;;;;;5.68;3.20;;;;;;;21.41;38.35;99520.94;12202675;19;20014;-83
2023/05/01 12:12:56;;;;;;;;;;;;;;;21.24;39.29;99518.94;12207387;19;21137;-84
2023/05/01 12:17:47;;;;;;;6.95;3.22;;;;;;;21.31;39.99;99516.44;12182511;19;19922;-85
2023/05/01 12:22:07;;;;;;;4.50;3.28;;;;;;;21.12;38.52;99518.75;12204638;19;20027;-86
2023/05/01 12:26:22;;;;;;;5.55;2.85;;;;;;;20.94;38.88;99521.50;12178722;19;20031;-85
2023/05/01 12:30:28;;;;;;;4.88;3.00;;;;;;;20.72;39.62;99532.81;12203201;19;20021;-85
2023/05/01 12:34:33;;;;;;;5.95;3.13;;;;;;;20.45;39.75;99528.22;12184295;19;20030;-85
2023/05/01 12:38:35;;;;;;;5.80;3.05;;;;;;;20.19;40.41;99526.13;12201660;19;20375;-84
2023/05/01 12:42:37;;;;;;;6.78;3.42;;;;;;;19.98;41.49;99525.00;12201280;19;20007;-84
2023/05/01 12:46:43;;;;;;;7.57;3.58;;;;;;;19.64;42.47;99528.38;12180439;19;20390;-84
2023/05/01 12:50:45;;;;;;;5.10;3.40;;;;;;;19.18;42.38;99527.47;12202812;19;20027;-87
2023/05/01 12:55:01;;;;;;;5.47;3.45;;;;;;;18.86;43.78;99528.47;12203118;19;20022;-88
2023/05/01 12:59:03;;;;;;;4.25;2.75;;;;;;;18.65;44.27;99523.28;12171722;19;20400;-86
2023/05/01 13:03:05;;;;;;;9.25;5.93;;;;;;;18.50;44.59;99523.59;12200749;19;20503;-83
2023/05/01 13:07:16;;;;;;;7.38;4.20;;;;;;;18.40;46.48;99521.00;12204980;19;20010;-83
2023/05/01 13:11:18;;;;;;;10.60;5.35;;;;;;;18.33;45.79;99520.59;12205010;19;20006;-84
2023/05/01 13:15:21;;;;;;;51.03;46.47;;;;;;;18.30;47.05;99522.03;12202786;19;20039;-85
2023/05/01 13:19:27;;;;;;;66.13;60.45;;;;;;;18.32;48.16;99519.75;12175234;19;20287;-85
2023/05/01 13:23:29;;;;;;;8.10;6.63;;;;;;;18.30;46.55;99512.84;12197095;19;20013;-87
2023/05/01 13:27:31;;;;;;;28.33;21.33;;;;;;;18.38;47.18;99520.47;12201247;19;20010;-86
2023/05/01 13:31:33;;;;;;;45.83;40.87;;;;;;;18.44;47.03;99516.44;12188565;19;20138;-86
2023/05/01 13:35:37;;;;;;;54.72;46.28;;;;;;;18.52;46.63;99512.94;12207774;19;20169;-87
2023/05/01 13:39:44;;;;;;;129.80;93.30;;;;;;;18.64;45.89;99510.44;12208094;19;20002;-85
2023/05/01 13:43:46;;;;;;;153.32;103.40;;;;;;;19.22;45.77;99516.50;12187465;19;21794;-86
2023/05/01 13:47:54;;;;;;;734.78;525.85;;;;;;;20.78;43.08;99523.09;12208470;19;20007;-86
2023/05/01 13:51:58;;;;;;;199.32;155.70;;;;;;;23.04;39.15;99514.41;12210186;19;20018;-85
2023/05/01 13:56:05;;;;;;;61.53;46.55;;;;;;;24.71;35.57;99510.47;12187269;19;20007;-85
2023/05/01 14:00:13;;;;;;;14.15;11.77;;;;;;;25.68;33.98;99493.78;12203758;19;20352;-86
2023/05/01 14:04:18;;;;;;;89.47;72.10;;;;;;;26.92;30.29;99491.81;12188928;19;20054;-85
2023/05/01 14:08:27;;;;;;;193.57;145.77;;;;;;;27.32;29.36;99485.91;12207939;19;20014;-86
2023/05/01 14:12:30;;;;;;;39.67;35.92;;;;;;;27.54;28.16;99492.84;12211621;19;20015;-85
2023/05/01 14:16:33;;;;;;;43.95;39.08;;;;;;;27.30;28.29;99490.31;12189151;19;20018;-87
2023/05/01 14:20:39;;;;;;;16.77;14.98;;;;;;;26.45;29.01;99472.91;12205581;19;20340;-86
2023/05/01 14:24:41;;;;;;;436.90;391.05;;;;;;;26.01;29.79;99482.22;12209985;19;20019;-86
2023/05/01 14:28:43;;;;;;;;;;;;;;;25.63;28.58;99477.09;12174467;19;20010;-84
2023/05/01 14:32:46;;;;;;;;;;;;;;;24.65;29.85;99472.44;12211923;19;19911;-84
2023/05/01 14:36:49;;;;;;;24.88;20.23;;;;;;;24.15;30.56;99476.38;12206449;19;19914;-85
2023/05/01 14:40:54;;;;;;;9.38;7.25;;;;;;;23.59;30.63;99473.13;12182639;19;20010;-85
2023/05/01 14:44:56;;;;;;;13.57;7.15;;;;;;;23.58;31.90;99477.09;12207934;19;20026;-84
2023/05/01 14:49:00;;;;;;;7.93;5.72;;;;;;;23.83;30.41;99472.44;12205982;19;20415;-85
2023/05/01 14:53:06;;;;;;;6.95;4.70;;;;;;;23.15;31.74;99475.47;12183913;19;20002;-85
2023/05/01 14:57:11;;;;;;;6.65;3.33;;;;;;;22.90;32.06;99471.66;12203254;19;20002;-87
2023/05/01 15:01:14;;;;;;;3.83;2.45;;;;;;;22.67;31.93;99471.97;12182993;19;20003;-85
2023/05/01 15:05:20;;;;;;;3.53;2.45;;;;;;;22.48;32.46;99472.38;12205666;19;20088;-84
2023/05/01 15:09:22;;;;;;;4.35;2.78;;;;;;;22.29;32.65;99478.41;12205593;19;20031;-84
2023/05/01 15:13:24;;;;;;;3.20;2.40;;;;;;;22.33;33.21;99478.56;12187310;19;20466;-86
2023/05/01 15:17:27;;;;;;;5.93;3.63;;;;;;;22.33;33.21;99477.72;12209699;19;20397;-84
2023/05/01 15:21:32;;;;;;;9.30;6.28;;;;;;;22.17;33.35;99477.47;12209294;19;20030;-85
2023/05/01 15:25:34;;;;;;;4.05;3.05;;;;;;;21.92;33.54;99479.16;12186758;19;20016;-84
2023/05/01 15:29:36;;;;;;;4.13;2.95;;;;;;;22.02;33.68;99474.03;12199909;19;20013;-86
2023/05/01 15:33:38;;;;;;;;;;;;;;;21.73;34.11;99460.72;12202678;19;21216;-85
2023/05/01 15:37:40;;;;;;;3.33;2.50;;;;;;;21.57;34.39;99463.22;12177942;19;19915;-85
2023/05/01 15:41:42;;;;;;;6.50;4.68;;;;;;;21.67;34.41;99459.25;12205345;19;20038;-82
2023/05/01 15:45:45;;;;;;;4.55;2.92;;;;;;;21.80;35.46;99466.66;12202349;19;20007;-84
2023/05/01 15:49:47;;;;;;;4.10;2.80;;;;;;;21.77;35.32;99464.53;12179327;19;20017;-83
2023/05/01 15:53:51;;;;;;;6.53;2.65;;;;;;;21.76;35.11;99465.66;12198983;19;20030;-86
2023/05/01 15:57:53;;;;;;;94.83;56.43;;;;;;;21.31;35.03;99465.19;12201247;19;20467;-84
2023/05/01 16:01:55;;;;;;;16.93;13.20;;;;;;;21.08;36.21;99467.31;12177512;19;20027;-84
2023/05/01 16:05:58;;;;;;;6.25;3.67;;;;;;;20.82;36.59;99468.13;12207317;19;20062;-89
2023/05/01 16:09:59;;;;;;;3.80;2.65;;;;;;;20.74;35.44;99480.13;12205735;19;20506;-84
2023/05/01 16:14:02;;;;;;;4.53;2.60;;;;;;;20.92;35.72;99479.00;12185833;19;20416;-84
2023/05/01 16:18:05;;;;;;;3.40;2.60;;;;;;;21.20;35.31;99483.47;12202645;19;20506;-84
2023/05/01 16:22:06;;;;;;;5.20;2.78;;;;;;;21.21;35.79;99490.72;12208372;19;20353;-83
2023/05/01 16:26:09;;;;;;;4.77;2.53;;;;;;;21.20;35.54;99484.28;12183035;19;20005;-84
2023/05/01 16:30:15;;;;;;;3.88;2.58;;;;;;;21.16;35.56;99497.31;12206009;19;20031;-84
2023/05/01 16:34:23;;;;;;;5.22;2.47;;;;;;;20.98;35.65;99499.28;12185477;19;20018;-84
2023/05/01 16:38:26;;;;;;;6.45;2.70;;;;;;;20.71;35.92;99503.16;12207714;19;20737;-84
2023/05/01 16:42:30;;;;;;;89.82;40.60;;;;;;;20.46;36.48;99497.13;12207926;19;20408;-83
2023/05/01 16:46:32;;;;;;;8.93;6.47;;;;;;;20.33;36.90;99498.06;12186980;19;20092;-84
2023/05/01 16:50:39;;;;;;;5.40;3.20;;;;;;;20.27;37.48;99511.34;12202525;19;20091;-84
2023/05/01 16:54:42;;;;;;;5.78;2.92;;;;;;;20.09;38.00;99508.78;12198790;19;20657;-85
2023/05/01 16:58:45;;;;;;;6.82;2.88;;;;;;;19.82;37.94;99507.00;12182542;19;20098;-85
2023/05/01 17:02:53;;;;;;;4.88;2.83;;;;;;;19.58;39.72;99517.31;12193583;19;20035;-85
2023/05/01 17:06:56;;;;;;;6.75;3.63;;;;;;;19.28;41.58;99516.06;12198258;19;20010;-86
2023/05/01 17:11:00;;;;;;;4.47;2.78;;;;;;;18.94;44.23;99513.75;12172854;19;19999;-85
2023/05/01 17:15:03;;;;;;;5.88;3.22;;;;;;;18.64;45.60;99518.00;12195359;19;20017;-85
2023/05/01 17:19:08;;;;;;;7.38;3.42;;;;;;;18.36;47.91;99514.38;12195476;19;20006;-85
2023/05/01 17:23:10;;;;;;;6.57;3.08;;;;;;;18.11;50.16;99518.47;12172477;19;20003;-85
2023/05/01 17:27:12;;;;;;;7.15;3.33;;;;;;;17.91;52.15;99516.91;12197050;19;20014;-85
2023/05/01 17:31:15;;;;;;;7.57;3.17;;;;;;;17.74;54.25;99509.06;12177214;19;19999;-86
2023/05/01 17:35:22;;;;;;;5.35;3.08;;;;;;;17.59;56.16;99531.63;12202270;19;20003;-88
2023/05/01 17:39:26;;;;;;;4.38;3.25;;;;;;;17.39;56.66;99528.00;12199914;19;20648;-84
2023/05/01 17:43:31;;;;;;;11.63;3.85;;;;;;;17.18;58.73;99529.44;12179484;19;20026;-84
2023/05/01 17:47:40;;;;;;;4.97;3.42;;;;;;;16.97;60.40;99526.13;12196742;19;20017;-86
2023/05/01 17:51:44;;;;;;;6.05;3.15;;;;;;;16.77;61.34;99538.34;12197022;19;19998;-84
2023/05/01 17:55:45;;;;;;;9.43;4.25;;;;;;;16.57;62.22;99542.19;12176640;19;20011;-87
2023/05/01 17:59:47;;;;;;;6.45;4.13;;;;;;;16.37;63.67;99549.63;12198342;19;20094;-87
2023/05/01 18:03:52;;;;;;;6.10;3.05;;;;;;;16.21;64.57;99545.34;12192040;19;20010;-87
2023/05/01 18:07:56;;;;;;;5.25;3.10;;;;;;;16.12;66.04;99552.66;12179061;19;20015;-87
2023/05/01 18:12:01;;;;;;;7.82;4.03;;;;;;;16.05;67.27;99555.78;12196797;19;20019;-87
2023/05/01 18:16:06;;;;;;;6.78;2.95;;;;;;;16.02;67.18;99561.09;12212327;19;20086;-86
2023/05/01 18:20:11;;;;;;;6.25;3.35;;;;;;;15.97;67.00;99566.69;12187073;19;20010;-90
2023/05/01 18:24:15;;;;;;;5.78;2.95;;;;;;;15.93;66.11;99563.69;12211008;19;20007;-86
2023/05/01 18:28:17;;;;;;;6.68;3.60;;;;;;;15.92;66.15;99581.47;12182654;19;20610;-86
2023/05/01 18:32:21;;;;;;;7.00;3.70;;;;;;;15.88;66.46;99580.38;12209885;19;20032;-87
2023/05/01 18:36:33;;;;;;;5.93;3.95;;;;;;;15.84;67.38;99585.69;12209150;19;20002;-87
2023/05/01 18:40:37;;;;;;;5.65;3.63;;;;;;;15.80;66.43;99587.41;12187245;19;20055;-88
2023/05/01 18:44:39;;;;;;;4.93;3.10;;;;;;;15.74;67.10;99584.97;12209342;19;20006;-85
2023/05/01 18:48:41;;;;;;;8.93;3.42;;;;;;;15.68;68.23;99592.50;12211210;19;21774;-86
2023/05/01 18:52:43;;;;;;;5.18;3.60;;;;;;;15.61;69.16;99591.94;12191625;19;20015;-86
2023/05/01 18:56:52;;;;;;;5.88;3.97;;;;;;;15.53;70.06;99595.31;12208252;19;20007;-86
2023/05/01 19:00:55;;;;;;;6.85;3.58;;;;;;;15.44;71.45;99598.75;12210011;19;19999;-86
2023/05/01 19:04:57;;;;;;;11.02;4.10;;;;;;;15.31;73.13;99607.69;12190557;19;20638;-87
2023/05/01 19:09:02;;;;;;;8.82;3.78;;;;;;;15.18;74.20;99613.88;12210622;19;20010;-85
2023/05/01 19:13:07;;;;;;;8.57;5.13;;;;;;;15.07;75.94;99617.81;12213746;19;20070;-88
2023/05/01 19:17:09;;;;;;;5.80;4.40;;;;;;;15.01;75.95;99623.38;12194023;19;20019;-86
2023/05/01 19:21:11;;;;;;;;;;;;;;;14.96;76.40;99631.75;12211726;19;20081;-85
2023/05/01 19:25:13;;;;;;;5.80;3.75;;;;;;;14.98;75.75;99634.22;12210195;19;19918;-87
2023/05/01 19:29:20;;;;;;;7.85;3.58;;;;;;;14.98;75.89;99642.53;12212428;19;20443;-85
2023/05/01 19:33:22;;;;;;;8.20;4.07;;;;;;;14.91;73.74;99658.66;12249781;19;20018;-87